SVQ weather

Sevilla Airport
Sevilla, AndalucĂ­a, Spain

Public forecast

Using degrees Celsius for public forecast. Weather courtesy of forecast.io.

METAR (pilot weather report)

Retrieved 2019/05/27 00:30 UTC (9 minutes ago):

LEZL 270030Z AUTO 22005KT 9999 NCD 21/13 Q1014

TAF (pilot weather forecast)

Retrieved 2019/05/26 21:27 UTC (3 hours ago):

TAF LEZL 262000Z 2621/2721 23007KT CAVOK TX36/2715Z TN16/2705Z